SAZB/BHI METAR and TAF weather

Enter ICAO airport designator
Station Type Date Time Source
SAZB METAR 2018/12/11 00:53 UTC NOAA

SAZB 110053Z 02012KT 5000 TSRA OVC035 FEW040CB 19/17 Q1010


Station Type Date Time Source
SAZB Decoded METAR 2018/12/11 00:53 UTC NOAA

Bahia Blanca Aerodrome, Argentina (SAZB) 38-44S 062-10W 83M
Dec 10, 2018 - 07:53 PM EST / 2018.12.11 0053 UTC
Wind: from the NNE (020 degrees) at 14 MPH (12 KT):0
Visibility: 3 mile(s):0
Sky conditions: overcast
Weather: rain with thunder; Cumulonimbus clouds observed
Temperature: 66 F (19 C)
Dew Point: 62 F (17 C)
Relative Humidity: 88%
Pressure (altimeter): 29.83 in. Hg (1010 hPa)
ob: SAZB 110053Z 02012KT 5000 TSRA OVC035 FEW040CB 19/17 Q1010
cycle: 1

Station Type Date Time Source
SAZB TAF 2018/11/21 00:48 UTC NOAA

TAF SAZB 212300Z 2200/2224 32005KT CAVOK TX25/2200Z TN14/2224Z
BECMG 2201/2203 VRB03KT 7000 RADZ SCT020
BECMG 2203/2205 18020G30KT 9999 SCT030
BECMG 2219/2221 18020KT CAVOK


Example: see airport list